Terminal Aerodrome Forecast
Issued by NWS Bismarck, ND

Home | Current Version | Previous Version | Graphics & Text | Print | Product List | Glossary On
Versions: 1 2 3 4 5 6 7 8 9 10 11 12 13 14 15 16 17 18
000
FTUS43 KBIS 281726
TAFISN
TAF
KISN 281726Z 2818/2918 24025G38KT 4SM -RA BR BKN025 OVC035
     FM282200 28035G50KT P6SM -SHRA OVC025
     FM290300 28020G30KT P6SM VCSH BKN035 OVC050
     FM290600 28015G25KT P6SM SCT070=

USA.gov is the U.S. government's official web portal to all federal, state and local government web resources and services.